Time;durP1;ratioP1;P1;durP2;ratioP2;P2;SDS_P1;SDS_P2;PMS_P1;PMS_P2;Temp;Humidity;BMP_temperature;BMP_pressure;BME280_temperature;BME280_humidity;BME280_pressure;Samples;Min_cycle;Max_cycle;Signal;HPM_P1;HPM_P2
2022/08/07 00:01:17;;;;;;;1.25;0.63;;;16.80;99.90;;;;;;4971147;28;20062;-70
2022/08/07 00:04:05;;;;;;;2.58;0.40;;;16.80;99.90;;;;;;4978871;28;20050;-68
2022/08/07 00:06:35;;;;;;;1.73;0.40;;;16.80;99.90;;;;;;4969878;28;20050;-67
2022/08/07 00:09:11;;;;;;;1.65;0.95;;;16.80;99.90;;;;;;4978198;28;20294;-70
2022/08/07 00:11:46;;;;;;;2.97;0.50;;;16.70;99.90;;;;;;4973853;28;20053;-67
2022/08/07 00:14:26;;;;;;;2.60;0.40;;;16.70;99.90;;;;;;4977745;28;20069;-67
2022/08/07 00:16:58;;;;;;;3.35;0.40;;;16.70;99.90;;;;;;4977224;28;20085;-72
2022/08/07 00:19:27;;;;;;;0.45;0.40;;;16.60;99.90;;;;;;4981186;28;20050;-72
2022/08/07 00:22:15;;;;;;;0.65;0.30;;;16.60;99.90;;;;;;4971191;28;20381;-70
2022/08/07 00:25:06;;;;;;;2.65;0.85;;;16.60;99.90;;;;;;4972466;28;20100;-66
2022/08/07 00:27:36;;;;;;;2.22;1.02;;;16.60;99.90;;;;;;4995550;28;20050;-67
2022/08/07 00:30:20;;;;;;;1.05;0.50;;;16.50;99.90;;;;;;4998363;28;20042;-67
2022/08/07 00:32:58;;;;;;;1.60;0.65;;;16.50;99.90;;;;;;4996196;28;20038;-71
2022/08/07 00:35:26;;;;;;;8.23;0.95;;;16.50;99.90;;;;;;4991486;28;20511;-66
2022/08/07 00:37:59;;;;;;;3.47;0.93;;;16.40;99.90;;;;;;5000653;28;20149;-72
2022/08/07 00:40:27;;;;;;;3.03;1.33;;;16.40;99.90;;;;;;4987769;28;20057;-67
2022/08/07 00:43:10;;;;;;;1.63;1.40;;;16.40;99.90;;;;;;4999629;28;20041;-69
2022/08/07 00:45:59;;;;;;;0.65;0.65;;;16.30;99.90;;;;;;4996203;28;20412;-71
2022/08/07 00:48:28;;;;;;;;;;;16.30;99.90;;;;;;5005806;28;20054;-69
2022/08/07 00:50:59;;;;;;;2.67;0.80;;;16.30;99.90;;;;;;4997209;28;19932;-67
2022/08/07 00:53:27;;;;;;;0.98;0.30;;;16.30;99.90;;;;;;5003452;28;20045;-71
2022/08/07 00:56:14;;;;;;;3.45;0.45;;;16.20;99.90;;;;;;5003683;28;20157;-68
2022/08/07 00:58:43;;;;;;;1.33;0.50;;;16.20;99.90;;;;;;4990612;28;20092;-67
2022/08/07 01:01:14;;;;;;;3.95;1.65;;;16.20;99.90;;;;;;5000407;28;20045;-70
2022/08/07 01:03:41;;;;;;;4.88;1.50;;;16.20;99.90;;;;;;5005192;28;20042;-68
2022/08/07 01:06:29;;;;;;;0.57;0.45;;;16.20;99.90;;;;;;5000258;28;20049;-73
2022/08/07 01:08:58;;;;;;;4.13;1.98;;;16.20;99.90;;;;;;4993717;28;20057;-66
2022/08/07 01:11:31;;;;;;;4.18;0.82;;;16.20;99.90;;;;;;5000633;28;20042;-66
2022/08/07 01:14:23;;;;;;;9.50;1.58;;;16.10;99.90;;;;;;4994526;28;20479;-69
2022/08/07 01:16:55;;;;;;;1.75;0.63;;;16.10;99.90;;;;;;4989592;28;20057;-68
2022/08/07 01:19:25;;;;;;;2.50;0.60;;;16.10;99.90;;;;;;4988655;28;20117;-70
2022/08/07 01:21:53;;;;;;;1.95;0.90;;;16.00;99.90;;;;;;4981077;28;20106;-68
2022/08/07 01:24:26;;;;;;;3.15;0.93;;;16.00;99.90;;;;;;4970427;28;20054;-69
2022/08/07 01:26:57;;;;;;;4.05;1.83;;;16.00;99.90;;;;;;4973945;28;20047;-69
2022/08/07 01:29:26;;;;;;;6.35;1.05;;;16.00;99.90;;;;;;4977122;28;20042;-73
2022/08/07 01:32:02;;;;;;;6.00;0.82;;;16.00;99.90;;;;;;4981394;28;20049;-67
2022/08/07 01:34:32;;;;;;;5.07;1.00;;;16.00;99.90;;;;;;4980682;28;20077;-71
2022/08/07 01:37:07;;;;;;;1.25;0.70;;;15.90;99.90;;;;;;4990763;28;20472;-70
2022/08/07 01:39:37;;;;;;;2.95;1.42;;;15.90;99.90;;;;;;4978112;28;20079;-66
2022/08/07 01:42:34;;;;;;;2.22;0.90;;;15.90;99.90;;;;;;4987637;28;20038;-70
2022/08/07 01:45:07;;;;;;;1.77;0.90;;;15.80;99.90;;;;;;4982609;28;20046;-68
2022/08/07 01:47:45;;;;;;;4.15;1.15;;;15.80;99.90;;;;;;4977161;28;20049;-69
2022/08/07 01:50:37;;;;;;;6.88;2.10;;;15.80;99.90;;;;;;4982145;28;20506;-68
2022/08/07 01:53:10;;;;;;;2.88;0.90;;;15.80;99.90;;;;;;5002934;28;20137;-68
2022/08/07 01:55:57;;;;;;;3.65;1.73;;;15.80;99.90;;;;;;5001215;28;20047;-71
2022/08/07 01:58:30;;;;;;;4.47;1.00;;;15.80;99.90;;;;;;4990990;28;20046;-68
2022/08/07 02:01:05;;;;;;;5.35;0.65;;;15.70;99.90;;;;;;4982486;28;20130;-69
2022/08/07 02:03:57;;;;;;;2.28;1.30;;;15.70;99.90;;;;;;4971929;28;20490;-71
2022/08/07 02:06:28;;;;;;;3.35;0.93;;;15.70;99.90;;;;;;4978596;28;20057;-68
2022/08/07 02:09:03;;;;;;;4.50;1.45;;;15.70;99.90;;;;;;4976180;28;20050;-66
2022/08/07 02:11:35;;;;;;;2.55;1.00;;;15.60;99.90;;;;;;4975967;28;20064;-69
2022/08/07 02:14:27;;;;;;;6.28;1.23;;;15.60;99.90;;;;;;4978630;28;20120;-67
2022/08/07 02:17:04;;;;;;;4.03;1.15;;;15.50;99.90;;;;;;4974301;28;20039;-72
2022/08/07 02:19:33;;;;;;;2.45;1.00;;;15.50;99.90;;;;;;4978174;28;20054;-67
2022/08/07 02:22:23;;;;;;;10.88;1.45;;;15.50;99.90;;;;;;4977838;28;20038;-71
2022/08/07 02:24:54;;;;;;;8.10;0.98;;;15.50;99.90;;;;;;4980460;28;20093;-67
2022/08/07 02:27:24;;;;;;;3.47;2.20;;;15.40;99.90;;;;;;4975618;28;20050;-69
2022/08/07 02:29:53;;;;;;;5.77;2.33;;;15.30;99.90;;;;;;4980890;28;20053;-67
2022/08/07 02:32:27;;;;;;;4.60;1.17;;;15.30;99.90;;;;;;4978358;28;20642;-69
2022/08/07 02:34:57;;;;;;;2.65;1.35;;;15.30;99.90;;;;;;4982303;28;20039;-69
2022/08/07 02:37:29;;;;;;;4.97;2.33;;;15.30;99.90;;;;;;4977933;28;20082;-69
2022/08/07 02:40:06;;;;;;;3.45;1.42;;;15.30;99.90;;;;;;4981121;28;20101;-66
2022/08/07 02:42:57;;;;;;;2.75;1.38;;;15.30;99.90;;;;;;4978493;28;20038;-69
2022/08/07 02:45:26;;;;;;;3.78;1.27;;;15.30;99.90;;;;;;4976196;28;20046;-67
2022/08/07 02:48:14;;;;;;;6.10;1.20;;;15.30;99.90;;;;;;4981969;28;20060;-74
2022/08/07 02:50:46;;;;;;;4.05;1.40;;;15.30;99.90;;;;;;4979533;28;20615;-70
2022/08/07 02:53:36;;;;;;;5.93;1.10;;;15.30;99.90;;;;;;4980181;28;20116;-70
2022/08/07 02:56:13;;;;;;;5.75;1.90;;;15.30;99.90;;;;;;4972720;28;20142;-71
2022/08/07 02:58:52;;;;;;;4.93;1.45;;;15.20;99.90;;;;;;4978180;28;20039;-69
2022/08/07 03:01:24;;;;;;;3.72;1.40;;;15.20;99.90;;;;;;4979879;28;20053;-73
2022/08/07 03:04:08;;;;;;;4.80;2.25;;;15.20;99.90;;;;;;4979368;28;20396;-69
2022/08/07 03:06:46;;;;;;;7.07;2.35;;;15.20;99.90;;;;;;4980724;28;20050;-70
2022/08/07 03:09:18;;;;;;;3.50;2.60;;;15.20;99.90;;;;;;4979092;28;20042;-73
2022/08/07 03:12:07;;;;;;;4.68;1.70;;;15.20;99.90;;;;;;4977990;28;20870;-68
2022/08/07 03:14:51;;;;;;;4.70;2.15;;;15.10;99.90;;;;;;4975270;28;20324;-67
2022/08/07 03:17:19;;;;;;;7.93;1.65;;;15.10;99.90;;;;;;4976038;28;20940;-72
2022/08/07 03:19:54;;;;;;;4.78;1.65;;;15.10;99.90;;;;;;4988515;28;20109;-66
2022/08/07 03:22:25;;;;;;;6.70;1.80;;;15.10;99.90;;;;;;4978825;28;20042;-68
2022/08/07 03:24:58;;;;;;;7.20;1.98;;;15.00;99.90;;;;;;4980904;28;20043;-67
2022/08/07 03:27:29;;;;;;;8.80;1.58;;;15.00;99.90;;;;;;4977714;28;20472;-68
2022/08/07 03:30:17;;;;;;;2.83;1.42;;;15.00;99.90;;;;;;4973355;28;20465;-72
2022/08/07 03:32:48;;;;;;;5.25;1.55;;;15.00;99.90;;;;;;4974559;28;20054;-71
2022/08/07 03:35:27;;;;;;;5.88;1.48;;;15.00;99.90;;;;;;4977014;28;20469;-67
2022/08/07 03:38:16;;;;;;;3.95;1.63;;;15.00;99.90;;;;;;4977534;28;20047;-70
2022/08/07 03:40:49;;;;;;;3.35;1.50;;;15.00;99.90;;;;;;4979033;28;20049;-72
2022/08/07 03:43:25;;;;;;;7.32;2.10;;;15.00;99.90;;;;;;4976034;28;20066;-68
2022/08/07 03:46:02;;;;;;;5.93;2.55;;;15.00;99.90;;;;;;4977452;28;20046;-69
2022/08/07 03:48:32;;;;;;;5.68;2.40;;;15.00;99.90;;;;;;4978108;28;20566;-69
2022/08/07 03:51:12;;;;;;;3.80;1.65;;;15.00;99.90;;;;;;4975050;28;20053;-69
2022/08/07 03:53:40;;;;;;;9.85;2.10;;;15.10;99.90;;;;;;4978191;28;20118;-66
2022/08/07 03:56:30;;;;;;;8.70;2.15;;;15.00;99.90;;;;;;4976737;28;20932;-67
2022/08/07 03:59:02;;;;;;;4.95;2.45;;;15.00;99.90;;;;;;4978128;28;20042;-70
2022/08/07 04:01:44;;;;;;;3.92;1.30;;;15.10;99.90;;;;;;4995549;28;20045;-67
2022/08/07 04:04:18;;;;;;;5.30;1.95;;;15.10;99.90;;;;;;4994098;28;20043;-67
2022/08/07 04:06:51;;;;;;;7.05;2.78;;;15.00;99.90;;;;;;4996644;28;20128;-66
2022/08/07 04:09:22;;;;;;;2.95;1.52;;;15.10;99.90;;;;;;4992372;28;20383;-71
2022/08/07 04:11:55;;;;;;;6.43;2.03;;;15.10;99.90;;;;;;4979940;28;20045;-66
2022/08/07 04:14:44;;;;;;;7.82;3.20;;;15.10;99.90;;;;;;4980981;28;20054;-69
2022/08/07 04:17:16;;;;;;;14.10;3.42;;;15.10;99.90;;;;;;4979326;28;20096;-69
2022/08/07 04:19:49;;;;;;;9.18;3.33;;;15.10;99.90;;;;;;4986737;28;20050;-70
2022/08/07 04:22:23;;;;;;;6.57;3.00;;;15.10;99.90;;;;;;4991299;28;20050;-67
2022/08/07 04:24:58;;;;;;;6.28;2.08;;;15.10;99.90;;;;;;4999352;28;20093;-72
2022/08/07 04:27:29;;;;;;;3.90;1.75;;;15.20;99.90;;;;;;4968897;28;20054;-68
2022/08/07 04:30:08;;;;;;;4.93;2.08;;;15.20;99.90;;;;;;4993241;28;20049;-68
2022/08/07 04:33:00;;;;;;;6.78;2.47;;;15.20;99.90;;;;;;4983113;28;20061;-70
2022/08/07 04:35:37;;;;;;;7.28;2.70;;;15.20;99.90;;;;;;5003263;28;20053;-70
2022/08/07 04:38:10;;;;;;;3.83;1.58;;;15.20;99.90;;;;;;4972782;28;20202;-70
2022/08/07 04:40:43;;;;;;;9.48;2.58;;;15.30;99.90;;;;;;4979756;28;20153;-72
2022/08/07 04:43:42;;;;;;;6.82;2.10;;;15.20;99.90;;;;;;4975129;28;20047;-69
2022/08/07 04:47:16;;;;;;;7.45;1.95;;;15.20;99.90;;;;;;4971767;28;20050;-67
2022/08/07 04:50:12;;;;;;;8.95;2.10;;;15.30;99.90;;;;;;4998330;28;20108;-68
2022/08/07 04:53:04;;;;;;;2.38;1.65;;;15.40;99.90;;;;;;4994161;28;20451;-67
2022/08/07 04:55:40;;;;;;;10.98;2.33;;;15.40;99.90;;;;;;5002648;28;20046;-72
2022/08/07 04:58:51;;;;;;;4.25;1.90;;;15.40;99.90;;;;;;4990886;28;20038;-67
2022/08/07 05:01:55;;;;;;;8.88;2.40;;;15.50;99.90;;;;;;4999024;28;20050;-69
2022/08/07 05:04:31;;;;;;;3.50;2.00;;;15.60;99.90;;;;;;4996847;28;20542;-68
2022/08/07 05:07:30;;;;;;;8.00;1.92;;;15.70;99.90;;;;;;5000323;28;20056;-71
2022/08/07 05:10:15;;;;;;;9.75;2.55;;;15.80;99.90;;;;;;4966195;28;20121;-73
2022/08/07 05:13:15;;;;;;;9.18;2.72;;;15.80;99.90;;;;;;4990055;28;20112;-66
2022/08/07 05:16:07;;;;;;;3.78;1.63;;;15.80;99.90;;;;;;4998790;28;20042;-66
2022/08/07 05:18:39;;;;;;;7.65;1.92;;;15.90;99.90;;;;;;5003117;28;20069;-70
2022/08/07 05:21:09;;;;;;;7.97;2.50;;;15.90;99.90;;;;;;5008088;28;20436;-68
2022/08/07 05:23:44;;;;;;;6.72;2.08;;;15.80;99.90;;;;;;4998251;28;20056;-69
2022/08/07 05:26:16;;;;;;;5.70;2.10;;;15.80;99.90;;;;;;4998810;28;20111;-72
2022/08/07 05:28:58;;;;;;;8.30;3.47;;;15.80;99.90;;;;;;5001962;28;20128;-66
2022/08/07 05:31:33;;;;;;;3.38;2.00;;;15.90;99.90;;;;;;5010312;28;20112;-69
2022/08/07 05:34:11;;;;;;;9.70;2.90;;;15.90;99.90;;;;;;5001157;28;20059;-68
2022/08/07 05:36:47;;;;;;;6.63;2.17;;;15.90;99.90;;;;;;4995879;28;20050;-69
2022/08/07 05:39:25;;;;;;;4.53;2.53;;;15.90;99.90;;;;;;4996841;28;20061;-70
2022/08/07 05:42:13;;;;;;;6.35;2.97;;;15.90;99.90;;;;;;4994898;28;20069;-69
2022/08/07 05:45:01;;;;;;;5.20;2.08;;;15.90;99.90;;;;;;5004146;28;20795;-67
2022/08/07 05:47:42;;;;;;;4.13;2.47;;;16.00;99.90;;;;;;5006500;28;20046;-66
2022/08/07 05:50:35;;;;;;;5.35;2.17;;;16.10;99.90;;;;;;5000527;28;20475;-67
2022/08/07 05:53:10;;;;;;;7.70;3.92;;;16.10;99.90;;;;;;4999301;28;20061;-68
2022/08/07 05:55:58;;;;;;;7.82;3.20;;;16.10;99.90;;;;;;5009617;28;20038;-67
2022/08/07 05:58:29;;;;;;;9.57;3.22;;;16.10;99.90;;;;;;4995982;28;20038;-71
2022/08/07 06:01:04;;;;;;;9.85;2.13;;;16.20;99.90;;;;;;4994851;28;20047;-70
2022/08/07 06:03:42;;;;;;;3.75;1.60;;;16.10;99.90;;;;;;4990402;28;20120;-69
2022/08/07 06:06:35;;;;;;;12.23;3.15;;;16.10;99.90;;;;;;5001627;28;20050;-68
2022/08/07 06:09:05;;;;;;;6.28;2.28;;;16.20;99.90;;;;;;4996613;28;20129;-72
2022/08/07 06:11:37;;;;;;;5.40;2.17;;;16.20;99.90;;;;;;4997618;28;20045;-71
2022/08/07 06:14:04;;;;;;;5.15;2.58;;;16.30;99.90;;;;;;4990445;28;20042;-71
2022/08/07 06:16:48;;;;;;;7.60;2.80;;;16.40;99.90;;;;;;4985862;28;20138;-67
2022/08/07 06:19:25;;;;;;;6.82;2.80;;;16.40;99.90;;;;;;4979886;28;20105;-66
2022/08/07 06:22:13;;;;;;;9.68;2.63;;;16.40;99.90;;;;;;4985378;28;20043;-71
2022/08/07 06:24:58;;;;;;;6.25;2.20;;;16.40;99.90;;;;;;4987535;28;20575;-71
2022/08/07 06:27:28;;;;;;;5.05;2.35;;;16.30;99.90;;;;;;4978142;28;20050;-69
2022/08/07 06:30:15;;;;;;;6.00;2.55;;;16.30;99.90;;;;;;5007104;28;20027;-68
2022/08/07 06:33:05;;;;;;;9.93;2.42;;;16.30;99.90;;;;;;4971789;28;20043;-66
2022/08/07 06:35:43;;;;;;;11.20;2.65;;;16.30;99.90;;;;;;4999830;28;20452;-68
2022/08/07 06:38:30;;;;;;;6.80;3.47;;;16.30;99.90;;;;;;5000005;28;20049;-69
2022/08/07 06:40:59;;;;;;;5.90;2.17;;;16.20;99.90;;;;;;4997976;28;20526;-69
2022/08/07 06:43:34;;;;;;;7.40;2.67;;;16.20;99.90;;;;;;4988096;28;20399;-67
2022/08/07 06:46:14;;;;;;;5.65;2.40;;;16.30;99.90;;;;;;4999118;28;20042;-68
2022/08/07 06:48:57;;;;;;;6.28;1.63;;;16.40;99.90;;;;;;4982662;28;20042;-69
2022/08/07 06:51:32;;;;;;;5.82;2.22;;;16.40;99.90;;;;;;4990297;28;20323;-71
2022/08/07 06:54:05;;;;;;;10.10;3.53;;;16.50;99.90;;;;;;5001566;28;20046;-68
2022/08/07 06:56:57;;;;;;;7.53;1.80;;;16.50;99.90;;;;;;4995223;28;20097;-66
2022/08/07 06:59:36;;;;;;;3.97;2.17;;;16.50;99.90;;;;;;4994647;28;20387;-68
2022/08/07 07:02:25;;;;;;;8.15;3.03;;;16.50;99.90;;;;;;5004767;28;20054;-70
2022/08/07 07:05:13;;;;;;;5.50;2.47;;;16.50;99.90;;;;;;4998597;28;20141;-69
2022/08/07 07:08:00;;;;;;;4.90;2.83;;;16.50;99.90;;;;;;4991930;28;20144;-66
2022/08/07 07:10:34;;;;;;;5.82;2.22;;;16.40;99.90;;;;;;4994107;28;20046;-66
2022/08/07 07:13:25;;;;;;;4.15;1.48;;;16.40;99.90;;;;;;4990709;28;20395;-66
2022/08/07 07:16:17;;;;;;;9.13;3.53;;;16.30;99.90;;;;;;4997057;28;20125;-69
2022/08/07 07:18:52;;;;;;;3.63;1.83;;;16.30;99.90;;;;;;5002009;28;20053;-67
2022/08/07 07:21:25;;;;;;;8.32;2.67;;;16.40;99.90;;;;;;5003107;28;20080;-69
2022/08/07 07:24:09;;;;;;;9.07;4.43;;;16.40;99.90;;;;;;5002950;28;20092;-69
2022/08/07 07:26:43;;;;;;;5.30;2.53;;;16.50;99.90;;;;;;5003331;28;20046;-70
2022/08/07 07:29:21;;;;;;;4.75;1.88;;;16.50;99.90;;;;;;4988389;28;20148;-72
2022/08/07 07:32:11;;;;;;;6.55;2.63;;;16.50;99.90;;;;;;4993569;28;20086;-70
2022/08/07 07:34:45;;;;;;;7.60;2.88;;;16.40;99.90;;;;;;4996828;28;20059;-73
2022/08/07 07:37:16;;;;;;;10.90;3.10;;;16.30;99.90;;;;;;4990618;28;20065;-66
2022/08/07 07:40:06;;;;;;;3.50;1.77;;;16.30;99.90;;;;;;4996127;28;20100;-67
2022/08/07 07:42:46;;;;;;;9.70;3.13;;;16.30;99.90;;;;;;4999923;28;20049;-69
2022/08/07 07:45:24;;;;;;;5.10;2.28;;;16.30;99.90;;;;;;4992999;28;20053;-71
2022/08/07 07:48:16;;;;;;;5.85;2.03;;;16.50;99.90;;;;;;4970200;28;20097;-66
2022/08/07 07:51:03;;;;;;;;;;;16.50;99.90;;;;;;4979257;28;20046;-72
2022/08/07 07:53:42;;;;;;;7.25;2.03;;;16.50;99.90;;;;;;4976924;28;20024;-66
2022/08/07 07:56:20;;;;;;;5.00;2.10;;;16.60;99.90;;;;;;4966892;28;20038;-70
2022/08/07 07:59:02;;;;;;;6.35;3.47;;;16.70;99.90;;;;;;4970340;28;20050;-67
2022/08/07 08:01:33;;;;;;;4.07;2.70;;;16.80;99.90;;;;;;4973479;28;20076;-73
2022/08/07 08:04:22;;;;;;;6.07;3.08;;;16.80;99.90;;;;;;4994642;28;20042;-67
2022/08/07 08:06:52;;;;;;;4.30;2.13;;;16.90;99.90;;;;;;4984905;28;20157;-69
2022/08/07 08:09:23;;;;;;;4.80;3.30;;;16.80;99.90;;;;;;4968259;28;20094;-69
2022/08/07 08:11:56;;;;;;;5.43;2.22;;;16.80;99.90;;;;;;4974240;28;20042;-70
2022/08/07 08:14:34;;;;;;;7.78;2.13;;;16.80;99.90;;;;;;4978149;28;20626;-67
2022/08/07 08:17:06;;;;;;;5.95;3.67;;;16.80;99.90;;;;;;4984408;28;20078;-72
2022/08/07 08:19:59;;;;;;;5.30;1.83;;;16.80;99.90;;;;;;4995738;28;20164;-66
2022/08/07 08:28:34;;;;;;;7.35;2.40;;;16.90;99.90;;;;;;4985567;28;20046;-67
2022/08/07 08:31:09;;;;;;;7.13;2.28;;;17.00;99.90;;;;;;4988402;28;20037;-68
2022/08/07 08:33:42;;;;;;;3.90;2.55;;;17.00;99.90;;;;;;4966539;28;20435;-66
2022/08/07 08:36:17;;;;;;;6.75;2.38;;;17.00;99.90;;;;;;4967592;28;20035;-72
2022/08/07 08:38:58;;;;;;;11.98;4.15;;;17.00;99.90;;;;;;4968349;28;20043;-68
2022/08/07 08:42:02;;;;;;;5.63;2.25;;;17.10;99.90;;;;;;4971456;28;20134;-72
2022/08/07 08:44:51;;;;;;;4.97;2.78;;;17.10;99.90;;;;;;4975063;28;20050;-69
2022/08/07 08:47:28;;;;;;;12.45;3.05;;;17.20;99.90;;;;;;4969230;28;20043;-69
2022/08/07 08:50:12;;;;;;;7.70;2.00;;;17.20;99.90;;;;;;4965769;28;20058;-74
2022/08/07 08:53:05;;;;;;;5.78;2.55;;;17.20;99.90;;;;;;4971738;28;20393;-69
2022/08/07 08:55:38;;;;;;;6.88;2.38;;;17.20;99.90;;;;;;4977402;28;20046;-67
2022/08/07 08:58:35;;;;;;;8.20;2.88;;;17.30;99.90;;;;;;4974122;28;20046;-66
2022/08/07 09:01:25;;;;;;;10.57;3.22;;;17.40;99.90;;;;;;4967632;28;20070;-70
2022/08/07 09:04:17;;;;;;;8.75;2.22;;;17.50;99.90;;;;;;5006638;28;20072;-68
2022/08/07 09:07:00;;;;;;;7.03;2.65;;;17.60;99.90;;;;;;4994423;28;20034;-66
2022/08/07 09:09:47;;;;;;;6.25;2.15;;;17.70;99.90;;;;;;4995374;28;20120;-66
2022/08/07 09:12:59;;;;;;;6.82;2.97;;;17.50;99.90;;;;;;4985747;28;20050;-70
2022/08/07 09:15:37;;;;;;;6.45;3.03;;;17.50;99.90;;;;;;4986057;28;20483;-66
2022/08/07 09:18:40;;;;;;;6.97;2.17;;;17.40;99.90;;;;;;4976879;28;20042;-66
2022/08/07 09:21:34;;;;;;;3.85;1.75;;;17.30;99.90;;;;;;4977452;28;20038;-69
2022/08/07 09:24:57;;;;;;;8.30;2.38;;;17.30;99.90;;;;;;4974497;28;20217;-67
2022/08/07 09:28:02;;;;;;;3.50;2.00;;;17.30;99.90;;;;;;4960970;28;20138;-67
2022/08/07 09:30:54;;;;;;;7.88;2.38;;;17.40;99.90;;;;;;4976702;28;20101;-66
2022/08/07 09:33:36;;;;;;;8.63;2.53;;;17.50;99.90;;;;;;4972631;28;20847;-66
2022/08/07 09:36:42;;;;;;;4.10;2.58;;;17.50;99.90;;;;;;4976208;28;20603;-67
2022/08/07 09:39:34;;;;;;;6.45;2.30;;;17.50;99.90;;;;;;4969382;28;20058;-71
2022/08/07 09:42:26;;;;;;;5.68;2.35;;;17.50;99.90;;;;;;4973632;28;20046;-68
2022/08/07 09:45:19;;;;;;;6.82;3.40;;;17.50;99.90;;;;;;4972578;28;20050;-67
2022/08/07 09:48:18;;;;;;;4.53;2.13;;;17.70;99.90;;;;;;4980765;28;20065;-67
2022/08/07 09:50:49;;;;;;;7.60;3.63;;;17.90;99.90;;;;;;4979071;28;20084;-72
2022/08/07 09:53:22;;;;;;;4.32;2.55;;;17.90;99.90;;;;;;4969329;28;20168;-68
2022/08/07 09:55:55;;;;;;;4.38;1.98;;;18.00;99.90;;;;;;4978636;28;20078;-67
2022/08/07 09:58:37;;;;;;;5.60;2.30;;;18.00;99.90;;;;;;4972126;28;20046;-68
2022/08/07 10:01:41;;;;;;;4.43;2.33;;;18.10;99.90;;;;;;4977304;28;20051;-69
2022/08/07 10:04:32;;;;;;;4.78;2.03;;;18.30;99.90;;;;;;4995910;28;20073;-68
2022/08/07 10:07:29;;;;;;;8.32;2.38;;;18.20;99.90;;;;;;4992171;28;20046;-68
2022/08/07 10:10:22;;;;;;;3.38;2.67;;;18.30;99.90;;;;;;4994919;28;20133;-72
2022/08/07 10:13:12;;;;;;;6.88;3.10;;;18.40;99.90;;;;;;4998436;28;20403;-70
2022/08/07 10:16:14;;;;;;;6.72;2.42;;;18.10;99.90;;;;;;5008309;28;20042;-67
2022/08/07 10:19:17;;;;;;;4.55;2.72;;;17.90;99.90;;;;;;5002917;28;20567;-66
2022/08/07 10:21:56;;;;;;;8.68;3.08;;;18.10;99.90;;;;;;4980788;28;20429;-68
2022/08/07 10:25:01;;;;;;;5.85;2.30;;;17.90;99.90;;;;;;4994438;28;20424;-70
2022/08/07 10:28:10;;;;;;;5.55;2.75;;;17.80;99.90;;;;;;4986389;28;20416;-68
2022/08/07 10:31:02;;;;;;;5.82;2.42;;;17.90;99.90;;;;;;4993860;28;20407;-67
2022/08/07 10:33:47;;;;;;;4.47;2.35;;;17.80;99.90;;;;;;4989891;28;20039;-67
2022/08/07 10:36:55;;;;;;;5.15;1.63;;;18.00;99.90;;;;;;4996878;28;20502;-67
2022/08/07 10:39:28;;;;;;;8.75;3.28;;;18.10;99.90;;;;;;4976768;28;20128;-66
2022/08/07 10:42:32;;;;;;;5.18;2.15;;;18.30;99.90;;;;;;4972108;28;20039;-68
2022/08/07 10:45:16;;;;;;;3.72;2.83;;;18.30;99.90;;;;;;4992539;28;20084;-66
2022/08/07 10:48:31;;;;;;;2.72;1.88;;;18.30;99.90;;;;;;4976329;28;20698;-68
2022/08/07 10:51:13;;;;;;;5.05;3.58;;;18.40;99.90;;;;;;4983363;28;20065;-68
2022/08/07 10:54:18;;;;;;;3.85;1.90;;;18.30;99.90;;;;;;4991813;28;20403;-70
2022/08/07 10:56:59;;;;;;;1.75;1.38;;;18.40;99.90;;;;;;4999063;28;20038;-68
2022/08/07 10:59:52;;;;;;;2.38;1.90;;;18.30;99.90;;;;;;4997998;28;20829;-72
2022/08/07 11:02:22;;;;;;;6.38;2.63;;;18.50;99.90;;;;;;4996708;28;20058;-73
2022/08/07 11:05:35;;;;;;;6.05;2.35;;;18.60;99.90;;;;;;4996499;28;20437;-66
2022/08/07 11:08:47;;;;;;;3.88;1.73;;;18.80;99.90;;;;;;4997256;28;20467;-67
2022/08/07 11:11:26;;;;;;;4.82;1.73;;;18.50;99.90;;;;;;4997309;28;20757;-70
2022/08/07 11:14:02;;;;;;;2.92;1.52;;;18.70;99.90;;;;;;4994717;28;20107;-70
2022/08/07 11:16:58;;;;;;;5.03;1.60;;;19.00;99.90;;;;;;4998729;28;20038;-68
2022/08/07 11:19:54;;;;;;;4.30;2.13;;;19.10;99.90;;;;;;4993117;28;20400;-68
2022/08/07 11:22:43;;;;;;;3.00;1.80;;;18.90;99.90;;;;;;4967522;28;20948;-72
2022/08/07 11:25:26;;;;;;;4.18;1.95;;;19.10;99.90;;;;;;4970707;28;20050;-68
2022/08/07 11:28:24;;;;;;;2.80;1.90;;;19.30;99.90;;;;;;4969661;28;20369;-68
2022/08/07 11:31:09;;;;;;;3.15;1.30;;;19.40;99.90;;;;;;4985887;28;20031;-70
2022/08/07 11:33:55;;;;;;;7.43;2.50;;;19.40;99.90;;;;;;4972258;28;20147;-68
2022/08/07 11:36:57;;;;;;;4.93;2.47;;;19.20;99.90;;;;;;4975543;28;20397;-66
2022/08/07 11:39:54;;;;;;;6.90;2.88;;;18.70;99.90;;;;;;4971384;28;20102;-66
2022/08/07 11:43:03;;;;;;;2.67;2.47;;;18.90;99.90;;;;;;4992167;28;20416;-71
2022/08/07 11:45:43;;;;;;;4.95;2.15;;;19.10;99.90;;;;;;4996840;28;20108;-70
2022/08/07 11:48:19;;;;;;;6.22;3.22;;;19.00;99.90;;;;;;4989490;28;20050;-70
2022/08/07 11:51:07;;;;;;;4.35;1.98;;;19.00;99.90;;;;;;4974754;28;20483;-69
2022/08/07 11:53:59;;;;;;;4.53;2.20;;;19.00;99.90;;;;;;4967170;28;20145;-67
2022/08/07 11:56:49;;;;;;;3.22;2.10;;;18.80;99.90;;;;;;4972380;28;20078;-69
2022/08/07 11:59:36;;;;;;;2.75;1.77;;;18.70;99.90;;;;;;4966614;28;20118;-66
2022/08/07 12:02:42;;;;;;;2.70;1.48;;;18.70;99.90;;;;;;4973593;28;20054;-74
2022/08/07 12:05:30;;;;;;;3.05;1.65;;;18.90;99.90;;;;;;4972256;28;20062;-70
2022/08/07 12:08:32;;;;;;;4.18;2.33;;;19.10;99.90;;;;;;4978977;28;20055;-70
2022/08/07 12:11:21;;;;;;;8.13;2.10;;;19.20;99.90;;;;;;4979624;28;20085;-67
2022/08/07 12:14:14;;;;;;;5.53;2.17;;;19.30;99.90;;;;;;4993432;28;20463;-73
2022/08/07 12:17:01;;;;;;;3.30;1.33;;;19.10;99.90;;;;;;4991079;28;20108;-67
2022/08/07 12:19:45;;;;;;;6.85;2.50;;;19.40;99.90;;;;;;5000502;28;20222;-68
2022/08/07 12:22:51;;;;;;;5.60;3.05;;;19.60;99.90;;;;;;4996104;28;20597;-67
2022/08/07 12:25:51;;;;;;;4.90;2.05;;;19.70;99.90;;;;;;4987081;28;20053;-68
2022/08/07 12:28:49;;;;;;;6.28;1.70;;;19.70;99.90;;;;;;4997352;28;20144;-66
2022/08/07 12:31:50;;;;;;;5.72;2.28;;;19.70;99.90;;;;;;4993551;28;20077;-71
2022/08/07 12:34:33;;;;;;;5.13;1.88;;;19.40;99.90;;;;;;4997749;28;20069;-73
2022/08/07 12:37:02;;;;;;;2.00;1.63;;;19.60;99.90;;;;;;4990970;28;20489;-70
2022/08/07 12:39:45;;;;;;;3.38;1.85;;;19.70;99.90;;;;;;4974931;28;20134;-68
2022/08/07 12:42:22;;;;;;;4.68;1.83;;;20.00;99.90;;;;;;4979432;28;20061;-67
2022/08/07 12:44:59;;;;;;;3.85;1.55;;;19.90;99.90;;;;;;4982217;28;20484;-67
2022/08/07 12:48:06;;;;;;;4.85;2.28;;;19.90;99.90;;;;;;4984180;28;20447;-67
2022/08/07 12:51:09;;;;;;;4.45;1.80;;;20.10;99.90;;;;;;4981248;28;20062;-67
2022/08/07 12:53:56;;;;;;;4.72;1.63;;;20.30;99.90;;;;;;4972113;28;20042;-69
2022/08/07 12:56:48;;;;;;;3.78;2.35;;;20.20;99.90;;;;;;4969261;28;20042;-69
2022/08/07 12:59:26;;;;;;;3.30;1.52;;;20.10;99.90;;;;;;4967220;28;20540;-67
2022/08/07 13:02:59;;;;;;;9.13;1.85;;;20.10;99.90;;;;;;5000460;28;20064;-68
2022/08/07 13:05:54;;;;;;;2.10;1.45;;;20.30;99.90;;;;;;4968261;28;20042;-69
2022/08/07 13:08:50;;;;;;;5.00;1.92;;;20.70;99.90;;;;;;4976240;28;20376;-69
2022/08/07 13:11:29;;;;;;;3.28;1.52;;;20.70;99.90;;;;;;4982126;28;20500;-71
2022/08/07 13:14:16;;;;;;;6.88;2.90;;;20.70;99.90;;;;;;4980404;28;20093;-68
2022/08/07 13:16:55;;;;;;;3.40;1.50;;;20.60;99.90;;;;;;4984537;28;20070;-67
2022/08/07 13:19:40;;;;;;;2.53;1.35;;;20.70;99.90;;;;;;4982203;28;20137;-67
2022/08/07 13:22:21;;;;;;;2.30;0.95;;;20.70;99.90;;;;;;4981409;28;20038;-66
2022/08/07 13:25:02;;;;;;;3.53;2.20;;;20.80;99.90;;;;;;4969157;28;20043;-67
2022/08/07 13:27:49;;;;;;;1.95;1.17;;;21.00;99.90;;;;;;4979395;28;20061;-66
2022/08/07 13:30:39;;;;;;;3.30;1.60;;;21.20;99.90;;;;;;4973520;28;20614;-73
2022/08/07 13:33:31;;;;;;;2.80;1.77;;;21.10;99.70;;;;;;4984662;28;20206;-66
2022/08/07 13:36:29;;;;;;;3.95;1.40;;;20.80;99.40;;;;;;4978572;28;20450;-75
2022/08/07 13:39:44;;;;;;;2.45;1.30;;;20.90;99.90;;;;;;4971745;28;20058;-69
2022/08/07 13:42:32;;;;;;;6.03;1.50;;;20.90;99.70;;;;;;4973525;28;20048;-67
2022/08/07 13:45:07;;;;;;;2.22;1.45;;;21.10;99.70;;;;;;4974955;28;20465;-69
2022/08/07 13:47:56;;;;;;;3.20;2.20;;;20.90;99.50;;;;;;4974990;28;20410;-70
2022/08/07 13:50:39;;;;;;;2.78;1.42;;;20.90;99.90;;;;;;4989333;28;20054;-73
2022/08/07 13:53:38;;;;;;;1.48;1.33;;;20.90;99.90;;;;;;4993680;28;20506;-67
2022/08/07 13:56:26;;;;;;;2.88;1.10;;;21.00;99.90;;;;;;4998910;28;20050;-67
2022/08/07 13:59:24;;;;;;;5.13;1.55;;;20.90;99.90;;;;;;4990862;28;20054;-67
2022/08/07 14:02:06;;;;;;;1.88;1.48;;;20.80;99.90;;;;;;4993727;28;20049;-66
2022/08/07 14:04:50;;;;;;;2.00;1.42;;;20.90;99.90;;;;;;5001375;28;20505;-67
2022/08/07 14:07:32;;;;;;;3.85;1.65;;;20.80;99.90;;;;;;4993523;28;20483;-73
2022/08/07 14:10:01;;;;;;;1.85;1.20;;;21.00;99.20;;;;;;5004515;28;20123;-68
2022/08/07 14:12:51;;;;;;;3.65;1.55;;;21.10;99.30;;;;;;5011951;28;20147;-70
2022/08/07 14:15:42;;;;;;;3.42;1.40;;;21.30;99.60;;;;;;5000097;28;20054;-69
2022/08/07 14:18:37;;;;;;;4.35;1.70;;;21.60;98.50;;;;;;4994817;28;20037;-66